Time;durP1;ratioP1;P1;durP2;ratioP2;P2;SDS_P1;SDS_P2;PMS_P1;PMS_P2;Temp;Humidity;BMP_temperature;BMP_pressure;BME280_temperature;BME280_humidity;BME280_pressure;Samples;Min_cycle;Max_cycle;Signal;HPM_P1;HPM_P2
2022/03/29 00:01:15;;;;;;;;;;;;;;;16.52;48.02;101876.44;6283530;22;19908;-78
2022/03/29 00:03:40;;;;;;;;;;;;;;;16.55;47.97;101869.56;6282255;22;20328;-78
2022/03/29 00:06:06;;;;;;;;;;;;;;;16.54;48.17;101872.97;6281383;22;19915;-78
2022/03/29 00:08:31;;;;;;;;;;;;;;;16.55;48.15;101872.16;6252312;22;19990;-77
2022/03/29 00:10:56;;;;;;;;;;;;;;;16.57;48.06;101874.75;6277527;22;20320;-78
2022/03/29 00:13:22;;;;;;;;;;;;;;;16.61;48.00;101869.63;6281772;22;19907;-78
2022/03/29 00:15:47;;;;;;;;;;;;;;;16.55;47.99;101871.25;6283637;22;20308;-78
2022/03/29 00:18:12;;;;;;;;;;;;;;;16.55;48.05;101869.56;6279558;22;19912;-77
2022/03/29 00:20:38;;;;;;;;;;;;;;;16.59;48.20;101858.34;6253110;22;19915;-78
2022/03/29 00:23:03;;;;;;;;;;;;;;;16.59;48.20;101860.94;6279111;22;19937;-78
2022/03/29 00:25:28;;;;;;;;;;;;;;;16.58;47.97;101855.72;6279639;22;19961;-78
2022/03/29 00:27:54;;;;;;;;;;;;;;;16.59;48.29;101853.13;6280086;22;19911;-78
2022/03/29 00:30:20;;;;;;;;;;;;;;;16.60;48.23;101844.47;6254699;22;19941;-77
2022/03/29 00:32:45;;;;;;;;;;;;;;;16.59;47.94;101836.66;6280415;22;19960;-77
2022/03/29 00:35:11;;;;;;;;;;;;;;;16.58;48.02;101832.31;6281871;22;19917;-78
2022/03/29 00:37:37;;;;;;;;;;;;;;;16.55;48.21;101833.16;6255662;22;20299;-78
2022/03/29 00:40:03;;;;;;;;;;;;;;;16.55;48.19;101824.47;6256139;22;19946;-77
2022/03/29 00:42:28;;;;;;;;;;;;;;;16.54;48.24;101826.22;6256620;22;20379;-77
2022/03/29 00:44:55;;;;;;;;;;;;;;;16.52;48.05;101820.13;6283298;22;19982;-78
2022/03/29 00:47:21;;;;;;;;;;;;;;;16.53;48.25;101819.28;6256946;22;19947;-77
2022/03/29 00:49:46;;;;;;;;;;;;;;;16.50;48.22;101816.63;6281698;22;20354;-77
2022/03/29 00:52:11;;;;;;;;;;;;;;;16.53;48.32;101810.63;6282327;22;20324;-77
2022/03/29 00:54:40;;;;;;;;;;;;;;;16.54;48.25;101810.63;6283200;22;19927;-77
2022/03/29 00:57:06;;;;;;;;;;;;;;;16.55;48.17;101807.19;6256900;22;19908;-78
2022/03/29 00:59:31;;;;;;;;;;;;;;;16.55;48.24;101809.78;6254885;22;19907;-78
2022/03/29 01:01:57;;;;;;;;;;;;;;;16.52;48.25;101804.53;6253582;22;19907;-77
2022/03/29 01:04:23;;;;;;;;;;;;;;;16.49;48.31;101808.84;6279525;22;19939;-78
2022/03/29 01:06:48;;;;;;;;;;;;;;;16.44;48.08;101799.28;6253719;22;19907;-77
2022/03/29 01:09:14;;;;;;;;;;;;;;;16.38;48.10;101798.34;6254824;22;19916;-78
2022/03/29 01:11:39;;;;;;;;;;;;;;;16.35;48.31;101800.88;6281658;22;19911;-77
2022/03/29 01:14:05;;;;;;;;;;;;;;;16.36;48.39;101798.31;6282145;22;19947;-77
2022/03/29 01:19:16;;;;;;;;;;;;;;;16.38;48.18;101795.75;6282807;22;19949;-77
2022/03/29 01:21:44;;;;;;;;;;;;;;;16.38;48.39;101801.81;6255121;22;19907;-78
2022/03/29 01:24:11;;;;;;;;;;;;;;;16.37;48.38;101793.97;6252660;22;19913;-78
2022/03/29 01:26:36;;;;;;;;;;;;;;;16.36;48.27;101790.53;6277711;22;19911;-78
2022/03/29 01:29:01;;;;;;;;;;;;;;;16.38;48.48;101785.34;6277680;22;19922;-77
2022/03/29 01:31:28;;;;;;;;;;;;;;;16.42;48.51;101782.81;6252700;22;19945;-78
2022/03/29 01:33:55;;;;;;;;;;;;;;;16.46;48.62;101786.28;6278214;22;19911;-77
2022/03/29 01:36:21;;;;;;;;;;;;;;;16.47;48.54;101780.25;6253209;22;19907;-78
2022/03/29 01:38:46;;;;;;;;;;;;;;;16.48;48.40;101787.16;6279068;22;19918;-78
2022/03/29 01:41:11;;;;;;;;;;;;;;;16.48;48.53;101787.16;6279223;22;19920;-77
2022/03/29 01:43:36;;;;;;;;;;;;;;;16.48;48.45;101788.91;6278327;22;19919;-78
2022/03/29 01:46:02;;;;;;;;;;;;;;;16.49;48.59;101783.72;6280173;22;19912;-78
2022/03/29 01:48:27;;;;;;;;;;;;;;;16.50;48.40;101782.00;6282514;22;19978;-77
2022/03/29 01:50:53;;;;;;;;;;;;;;;16.42;48.53;101776.75;6283823;22;19919;-77
2022/03/29 01:53:23;;;;;;;;;;;;;;;16.38;48.49;101770.63;6283124;22;19907;-78
2022/03/29 01:55:48;;;;;;;;;;;;;;;16.35;48.37;101765.41;6283487;22;19908;-78
2022/03/29 01:58:14;;;;;;;;;;;;;;;16.36;48.58;101767.16;6281598;22;19915;-78
2022/03/29 02:00:41;;;;;;;;;;;;;;;16.35;48.40;101757.63;6281696;22;19915;-77
2022/03/29 02:03:07;;;;;;;;;;;;;;;16.34;48.59;101752.41;6282879;22;20300;-78
2022/03/29 02:05:33;;;;;;;;;;;;;;;16.36;48.70;101748.97;6279641;22;19911;-78
2022/03/29 02:07:59;;;;;;;;;;;;;;;16.40;48.61;101739.47;6277883;22;19916;-78
2022/03/29 02:10:24;;;;;;;;;;;;;;;16.43;48.64;101737.75;6256477;22;19907;-77
2022/03/29 02:12:50;;;;;;;;;;;;;;;16.46;48.66;101736.91;6281691;22;19907;-80
2022/03/29 02:15:16;;;;;;;;;;;;;;;16.47;48.67;101732.63;6282879;22;19991;-80
2022/03/29 02:17:42;;;;;;;;;;;;;;;16.49;48.58;101728.31;6281749;22;20320;-81
2022/03/29 02:20:07;;;;;;;;;;;;;;;16.42;48.58;101729.97;6256793;22;19981;-80
2022/03/29 02:22:33;;;;;;;;;;;;;;;16.37;48.61;101726.44;6282874;22;20275;-81
2022/03/29 02:24:58;;;;;;;;;;;;;;;16.37;48.65;101736.84;6255397;22;20316;-81
2022/03/29 02:27:24;;;;;;;;;;;;;;;16.37;48.57;101731.63;6281122;22;19941;-79
2022/03/29 02:29:51;;;;;;;;;;;;;;;16.33;48.63;101725.56;6280417;22;21908;-80
2022/03/29 02:32:16;;;;;;;;;;;;;;;16.30;48.69;101720.31;6281839;22;19965;-80
2022/03/29 02:34:41;;;;;;;;;;;;;;;16.32;48.71;101716.00;6282764;22;19964;-80
2022/03/29 02:37:06;;;;;;;;;;;;;;;16.33;48.58;101715.19;6283086;22;19930;-80
2022/03/29 02:39:32;;;;;;;;;;;;;;;16.30;48.59;101722.06;6281379;22;19957;-80
2022/03/29 02:41:57;;;;;;;;;;;;;;;16.31;48.77;101719.47;6282561;22;19921;-81
2022/03/29 02:44:22;;;;;;;;;;;;;;;16.32;48.75;101709.94;6281429;22;19938;-81
2022/03/29 02:46:47;;;;;;;;;;;;;;;16.34;48.90;101711.72;6282030;22;20037;-80
2022/03/29 02:49:13;;;;;;;;;;;;;;;16.38;48.77;101713.47;6281970;22;19919;-80
2022/03/29 02:51:38;;;;;;;;;;;;;;;16.38;48.83;101703.09;6281501;22;19911;-80
2022/03/29 02:54:03;;;;;;;;;;;;;;;16.40;48.62;101701.38;6281952;22;19912;-80
2022/03/29 02:56:29;;;;;;;;;;;;;;;16.40;48.60;101697.91;6282588;22;19911;-81
2022/03/29 02:58:54;;;;;;;;;;;;;;;16.41;48.59;101702.25;6284178;22;19931;-81
2022/03/29 03:01:19;;;;;;;;;;;;;;;16.35;48.53;101692.69;6256684;22;19911;-80
2022/03/29 03:03:44;;;;;;;;;;;;;;;16.34;48.87;101692.66;6283247;22;19949;-81
2022/03/29 03:06:10;;;;;;;;;;;;;;;16.32;48.66;101687.44;6282446;22;19915;-81
2022/03/29 03:08:35;;;;;;;;;;;;;;;16.33;48.92;101690.91;6281844;22;19911;-80
2022/03/29 03:11:00;;;;;;;;;;;;;;;16.33;48.96;101680.50;6283548;22;20339;-81
2022/03/29 03:13:26;;;;;;;;;;;;;;;16.34;48.95;101683.13;6280096;22;19915;-77
2022/03/29 03:15:51;;;;;;;;;;;;;;;16.30;48.77;101685.69;6280163;22;19911;-78
2022/03/29 03:18:16;;;;;;;;;;;;;;;16.29;48.85;101670.94;6281288;22;19916;-81
2022/03/29 03:20:41;;;;;;;;;;;;;;;16.27;48.95;101683.09;6285433;22;20243;-81
2022/03/29 03:23:07;;;;;;;;;;;;;;;16.25;48.90;101675.25;6283149;22;20346;-81
2022/03/29 03:25:32;;;;;;;;;;;;;;;16.29;48.95;101676.16;6281252;22;19943;-81
2022/03/29 03:27:57;;;;;;;;;;;;;;;16.25;49.21;101668.34;6281104;22;20351;-81
2022/03/29 03:30:22;;;;;;;;;;;;;;;16.25;49.02;101664.88;6282391;22;19937;-81
2022/03/29 03:32:48;;;;;;;;;;;;;;;16.25;49.00;101657.94;6281512;22;19989;-80
2022/03/29 03:35:14;;;;;;;;;;;;;;;16.25;48.86;101657.94;6279065;22;20338;-80
2022/03/29 03:37:39;;;;;;;;;;;;;;;16.25;49.00;101654.50;6279236;22;19994;-81
2022/03/29 03:40:06;;;;;;;;;;;;;;;16.23;48.85;101653.59;6278772;22;19938;-80
2022/03/29 03:42:32;;;;;;;;;;;;;;;16.23;48.87;101649.28;6279210;22;19942;-80
2022/03/29 03:44:58;;;;;;;;;;;;;;;16.27;48.96;101650.19;6279253;22;20324;-81
2022/03/29 03:47:23;;;;;;;;;;;;;;;16.29;48.94;101642.38;6253500;22;19934;-79
2022/03/29 03:49:48;;;;;;;;;;;;;;;16.25;48.80;101647.56;6279218;22;20381;-80
2022/03/29 03:52:14;;;;;;;;;;;;;;;16.23;48.88;101640.63;6278399;22;19946;-80
2022/03/29 03:54:39;;;;;;;;;;;;;;;16.23;48.71;101631.09;6279585;22;19912;-80
2022/03/29 03:57:05;;;;;;;;;;;;;;;16.22;48.67;101638.84;6279298;22;19911;-80
2022/03/29 03:59:30;;;;;;;;;;;;;;;16.22;48.89;101639.75;6280576;22;19914;-80
2022/03/29 04:01:56;;;;;;;;;;;;;;;16.21;48.72;101635.41;6253686;22;19915;-80
2022/03/29 04:04:21;;;;;;;;;;;;;;;16.23;48.82;101633.69;6280536;22;20324;-80
2022/03/29 04:06:46;;;;;;;;;;;;;;;16.24;48.82;101634.56;6279559;22;20323;-80
2022/03/29 04:09:12;;;;;;;;;;;;;;;16.22;48.79;101631.97;6279751;22;19915;-81
2022/03/29 04:11:37;;;;;;;;;;;;;;;16.17;48.70;101631.03;6278968;22;19911;-80
2022/03/29 04:14:02;;;;;;;;;;;;;;;16.17;48.67;101631.03;6278902;22;20008;-80
2022/03/29 04:16:28;;;;;;;;;;;;;;;16.16;48.73;101626.72;6279261;22;19914;-80
2022/03/29 04:18:53;;;;;;;;;;;;;;;16.20;48.51;101627.59;6280882;22;19986;-80
2022/03/29 04:21:19;;;;;;;;;;;;;;;16.20;48.61;101625.88;6279082;22;19919;-80
2022/03/29 04:23:44;;;;;;;;;;;;;;;16.22;48.72;101623.28;6279444;22;19943;-81
2022/03/29 04:26:10;;;;;;;;;;;;;;;16.22;48.50;101615.47;6253969;22;19915;-80
2022/03/29 04:28:35;;;;;;;;;;;;;;;16.24;48.73;101621.56;6257896;22;19918;-80
2022/03/29 04:31:00;;;;;;;;;;;;;;;16.26;48.45;101619.84;6280942;22;19907;-81
2022/03/29 04:33:26;;;;;;;;;;;;;;;16.27;48.61;101618.16;6280080;22;20367;-80
2022/03/29 04:35:51;;;;;;;;;;;;;;;16.22;48.45;101616.38;6254327;22;19903;-81
2022/03/29 04:38:16;;;;;;;;;;;;;;;16.20;48.47;101606.81;6279200;22;19915;-80
2022/03/29 04:40:42;;;;;;;;;;;;;;;16.14;48.17;101612.84;6279537;22;19926;-80
2022/03/29 04:43:07;;;;;;;;;;;;;;;16.11;48.42;101617.13;6286783;22;19946;-81
2022/03/29 04:45:32;;;;;;;;;;;;;;;16.16;48.45;101613.72;6260463;22;19911;-81
2022/03/29 04:47:58;;;;;;;;;;;;;;;16.17;48.22;101601.59;6285036;22;19914;-80
2022/03/29 04:50:23;;;;;;;;;;;;;;;16.19;48.56;101607.69;6284401;22;19982;-80
2022/03/29 04:52:48;;;;;;;;;;;;;;;16.20;48.34;101604.22;6283395;22;19911;-80
2022/03/29 04:55:14;;;;;;;;;;;;;;;16.20;48.31;101604.22;6282722;22;19907;-80
2022/03/29 04:57:41;;;;;;;;;;;;;;;16.19;48.18;101608.53;6261560;22;19985;-80
2022/03/29 05:00:07;;;;;;;;;;;;;;;16.18;48.31;101604.22;6258411;22;19915;-80
2022/03/29 05:02:34;;;;;;;;;;;;;;;16.18;48.29;101605.97;6257194;22;19943;-81
2022/03/29 05:05:00;;;;;;;;;;;;;;;16.17;48.43;101610.25;6256548;22;19908;-80
2022/03/29 05:07:28;;;;;;;;;;;;;;;16.18;48.40;101599.03;6282357;22;20327;-79
2022/03/29 05:09:53;;;;;;;;;;;;;;;16.18;48.30;101600.75;6282072;22;19915;-79
2022/03/29 05:12:19;;;;;;;;;;;;;;;16.19;48.19;101598.16;6281104;22;20339;-79
2022/03/29 05:14:44;;;;;;;;;;;;;;;16.16;47.97;101597.28;6279694;22;19912;-79
2022/03/29 05:17:09;;;;;;;;;;;;;;;16.17;48.14;101601.59;6280440;22;19934;-79
2022/03/29 05:19:34;;;;;;;;;;;;;;;16.20;48.12;101593.81;6285841;22;19911;-81
2022/03/29 05:22:00;;;;;;;;;;;;;;;16.20;48.15;101592.13;6288227;22;19915;-81
2022/03/29 05:24:25;;;;;;;;;;;;;;;16.21;48.40;101583.47;6286702;22;19963;-79
2022/03/29 05:26:50;;;;;;;;;;;;;;;16.34;48.66;101589.63;6286509;22;19911;-80
2022/03/29 05:29:18;;;;;;;;;;;;;;;16.54;48.76;101584.56;6299896;22;20428;-81
2022/03/29 05:31:43;;;;;;;;;;;;;;;16.79;48.78;101588.19;6299546;22;19962;-81
2022/03/29 05:34:09;;;;;;;;;;;;;;;16.96;48.71;101592.63;6302109;22;19919;-81
2022/03/29 05:36:34;;;;;;;;;;;;;;;17.02;48.53;101593.53;6296739;22;19907;-81
2022/03/29 05:39:18;;;;;;;;;;;;;;;17.02;48.20;101592.69;6293727;22;19973;-83
2022/03/29 05:41:45;;;;;;;;;;;;;;;16.98;47.87;101593.50;6294757;22;19938;-82
2022/03/29 05:49:24;;;;;;;;;;;;;;;17.02;48.21;101588.34;6319645;22;19919;-81
2022/03/29 05:51:52;;;;;;;;;;;;;;;17.12;48.14;101584.06;6309719;22;19911;-80
2022/03/29 05:54:17;;;;;;;;;;;;;;;17.20;48.19;101581.47;6308166;22;19914;-79
2022/03/29 05:56:43;;;;;;;;;;;;;;;17.21;47.89;101586.69;6309553;22;19929;-82
2022/03/29 05:59:08;;;;;;;;;;;;;;;17.20;48.08;101584.97;6313299;22;19899;-82
2022/03/29 06:06:45;;;;;;;;;;;;;;;17.07;47.62;101575.34;6308133;22;19919;-82
2022/03/29 06:09:13;;;;;;;;;;;;;;;17.03;47.62;101574.50;6311817;22;19915;-82
2022/03/29 06:11:50;;;;;;;;;;;;;;;17.06;47.93;101578.84;6284711;22;19910;-82
2022/03/29 06:14:42;;;;;;;;;;;;;;;17.06;47.58;101577.09;6324568;22;19937;-81
2022/03/29 06:20:29;;;;;;;;;;;;;;;17.07;47.51;101577.94;6338258;22;19914;-83
2022/03/29 06:23:03;;;;;;;;;;;;;;;17.05;47.57;101582.31;6337620;22;19953;-83
2022/03/29 06:28:58;;;;;;;;;;;;;;;17.09;47.52;101581.44;6338740;22;19958;-83
2022/03/29 06:31:48;;;;;;;;;;;;;;;17.09;47.61;101573.63;6312834;22;19922;-82
2022/03/29 06:40:39;;;;;;;;;;;;;;;17.16;47.48;101575.41;6291905;22;20046;-82
2022/03/29 06:43:05;;;;;;;;;;;;;;;17.10;46.96;101584.94;6312055;22;19899;-82
2022/03/29 06:45:30;;;;;;;;;;;;;;;17.00;46.65;101582.25;6312413;22;19915;-81
2022/03/29 06:47:59;;;;;;;;;;;;;;;16.94;46.75;101579.66;6311176;22;19929;-82
2022/03/29 06:56:51;;;;;;;;;;;;;;;16.94;46.68;101576.16;6338355;22;19969;-81
2022/03/29 07:02:28;;;;;;;;;;;;;;;16.86;46.69;101579.59;6319433;22;19914;-83
2022/03/29 07:04:56;;;;;;;;;;;;;;;16.88;46.80;101573.56;6283452;22;19907;-83
2022/03/29 07:15:51;;;;;;;;;;;;;;;16.98;46.79;101575.31;6336495;22;19925;-83
2022/03/29 07:24:45;;;;;;;;;;;;;;;17.15;46.82;101567.59;6337222;22;19912;-83
2022/03/29 07:33:10;;;;;;;;;;;;;;;17.15;46.88;101565.00;6336260;22;19955;-83
2022/03/29 07:35:47;;;;;;;;;;;;;;;17.07;46.33;101572.75;6335775;22;19918;-83
2022/03/29 07:38:34;;;;;;;;;;;;;;;16.98;46.23;101570.13;6258626;22;19939;-83
2022/03/29 07:44:18;;;;;;;;;;;;;;;17.12;46.88;101568.47;6336353;22;19967;-84
2022/03/29 07:50:19;;;;;;;;;;;;;;;17.32;46.80;101565.06;6336184;22;19937;-84
2022/03/29 07:59:19;;;;;;;;;;;;;;;17.14;46.20;101576.28;6336969;22;19922;-83
2022/03/29 08:01:45;;;;;;;;;;;;;;;17.06;46.38;101576.22;6302216;22;19931;-83
2022/03/29 08:07:23;;;;;;;;;;;;;;;;;;;;;
2022/03/29 08:10:34;;;;;;;;;;;;;;;;;;;;;
2022/03/29 08:13:31;;;;;;;;;;;;;;;17.21;46.42;101565.88;6336252;22;19933;-84
2022/03/29 08:19:41;;;;;;;;;;;;;;;17.25;46.36;101569.38;6336552;22;19951;-84
2022/03/29 08:22:16;;;;;;;;;;;;;;;17.30;46.36;101566.78;6336065;22;19922;-83
2022/03/29 08:28:03;;;;;;;;;;;;;;;17.32;45.76;101558.13;6273042;22;19922;-83
2022/03/29 08:33:46;;;;;;;;;;;;;;;17.21;45.40;101563.28;6272536;23;19970;-84
2022/03/29 08:39:42;;;;;;;;;;;;;;;17.20;45.74;101566.75;6272566;23;19952;-83
2022/03/29 08:42:15;;;;;;;;;;;;;;;17.20;45.72;101564.16;6245247;23;19923;-84
2022/03/29 08:45:01;;;;;;;;;;;;;;;17.25;45.80;101570.25;6268592;23;19898;-83
2022/03/29 08:56:48;;;;;;;;;;;;;;;17.47;44.38;101567.72;6239827;23;19914;-84
2022/03/29 08:59:21;;;;;;;;;;;;;;;17.43;44.95;101563.34;6216746;23;19908;-84
2022/03/29 09:02:10;;;;;;;;;;;;;;;17.44;44.80;101562.47;6224940;23;19906;-85
2022/03/29 09:07:47;;;;;;;;;;;;;;;17.65;44.71;101548.66;6238329;23;19968;-83
2022/03/29 09:10:39;;;;;;;;;;;;;;;17.84;44.71;101554.78;6190539;23;19945;-84
2022/03/29 09:13:54;;;;;;;;;;;;;;;18.03;43.72;101553.94;6123441;23;19920;-84
2022/03/29 09:16:41;;;;;;;;;;;;;;;17.90;43.49;101547.00;6211390;23;19900;-84
2022/03/29 09:25:50;;;;;;;;;;;;;;;17.83;43.45;101548.72;6105859;23;19915;-78
2022/03/29 09:39:56;;;;;;;;;;;;;;;17.83;43.91;101543.50;6334295;22;19917;-84
2022/03/29 09:43:02;;;;;;;;;;;;;;;17.92;43.58;101537.44;6241653;23;19896;-83
2022/03/29 09:48:44;;;;;;;;;;;;;;;17.93;43.37;101536.56;6242871;23;19924;-83
2022/03/29 10:06:47;;;;;;;;;;;;;;;18.13;43.18;101518.31;6336079;22;19959;-82
2022/03/29 10:09:45;;;;;;;;;;;;;;;18.07;43.08;101526.13;6334696;22;19900;-83
2022/03/29 10:12:23;;;;;;;;;;;;;;;18.00;43.26;101522.66;6321579;22;19891;-81
2022/03/29 10:15:02;;;;;;;;;;;;;;;18.05;43.47;101522.66;6318870;22;19907;-80
2022/03/29 10:17:30;;;;;;;;;;;;;;;17.97;43.03;101520.06;6289160;22;20241;-78
2022/03/29 10:19:57;;;;;;;;;;;;;;;17.81;42.80;101513.97;6284238;22;19930;-79
2022/03/29 10:22:23;;;;;;;;;;;;;;;17.71;43.20;101517.44;6257389;22;19938;-78
2022/03/29 10:24:53;;;;;;;;;;;;;;;17.72;42.74;101515.69;6283128;22;19915;-78
2022/03/29 10:27:22;;;;;;;;;;;;;;;17.75;43.25;101513.09;6286071;22;19934;-80
2022/03/29 10:30:02;;;;;;;;;;;;;;;17.75;43.14;101515.72;6316677;22;19918;-80
2022/03/29 10:32:48;;;;;;;;;;;;;;;17.80;43.21;101514.81;6314575;22;20316;-80
2022/03/29 10:35:30;;;;;;;;;;;;;;;17.84;43.15;101519.19;6284471;22;19911;-80
2022/03/29 10:38:05;;;;;;;;;;;;;;;17.81;43.28;101520.88;6284793;22;19942;-80
2022/03/29 10:40:43;;;;;;;;;;;;;;;17.78;43.56;101515.69;6259361;22;19915;-80
2022/03/29 10:43:28;;;;;;;;;;;;;;;17.73;43.41;101510.50;6262665;22;19915;-80
2022/03/29 10:45:54;;;;;;;;;;;;;;;17.82;43.91;101501.84;6288902;22;19941;-80
2022/03/29 10:48:19;;;;;;;;;;;;;;;17.82;43.48;101504.44;6288684;22;19911;-80
2022/03/29 10:50:53;;;;;;;;;;;;;;;17.76;43.08;101489.66;6290876;22;19906;-80
2022/03/29 10:53:30;;;;;;;;;;;;;;;17.72;43.08;101481.84;6288107;22;19919;-80
2022/03/29 10:59:19;;;;;;;;;;;;;;;17.78;43.24;101484.47;6316302;22;19918;-80
2022/03/29 11:01:44;;;;;;;;;;;;;;;17.72;43.20;101485.31;6290332;22;19907;-81
2022/03/29 11:04:15;;;;;;;;;;;;;;;17.78;43.01;101482.72;6290621;22;19923;-80
2022/03/29 11:06:59;;;;;;;;;;;;;;;17.72;43.15;101487.06;6285912;22;19907;-81
2022/03/29 11:09:30;;;;;;;;;;;;;;;17.68;43.23;101480.97;6286880;22;19911;-80
2022/03/29 11:12:03;;;;;;;;;;;;;;;17.64;42.90;101485.31;6284004;22;19907;-81
2022/03/29 11:14:29;;;;;;;;;;;;;;;17.66;43.18;101477.53;6285639;22;20143;-80
2022/03/29 11:16:54;;;;;;;;;;;;;;;17.73;43.47;101468.84;6311843;22;19907;-79
2022/03/29 11:19:39;;;;;;;;;;;;;;;17.79;43.39;101478.38;6261145;22;19927;-80
2022/03/29 11:22:23;;;;;;;;;;;;;;;17.73;43.37;101463.63;6286967;22;19959;-80
2022/03/29 11:24:49;;;;;;;;;;;;;;;17.69;43.09;101461.91;6285173;22;19930;-79
2022/03/29 11:27:26;;;;;;;;;;;;;;;17.66;43.23;101460.16;6286893;22;19906;-80
2022/03/29 11:29:52;;;;;;;;;;;;;;;17.67;43.58;101453.22;6286290;22;20323;-79
2022/03/29 11:32:55;;;;;;;;;;;;;;;17.71;43.90;101456.69;6287223;22;19922;-79
2022/03/29 11:35:43;;;;;;;;;;;;;;;17.65;43.73;101449.75;6287591;22;19914;-79
2022/03/29 11:38:14;;;;;;;;;;;;;;;17.62;43.69;101460.16;6135013;23;20330;-79
2022/03/29 11:40:58;;;;;;;;;;;;;;;17.59;43.87;101455.81;6258989;22;19958;-80
2022/03/29 11:43:26;;;;;;;;;;;;;;;17.64;43.90;101451.50;6261910;22;20276;-80
2022/03/29 11:45:54;;;;;;;;;;;;;;;17.63;43.75;101448.88;6308911;22;20327;-80
2022/03/29 11:48:20;;;;;;;;;;;;;;;17.58;43.60;101448.03;6290444;22;19910;-80
2022/03/29 11:50:52;;;;;;;;;;;;;;;17.61;44.09;101435.00;6290807;22;19914;-80
2022/03/29 11:53:20;;;;;;;;;;;;;;;17.64;43.71;101437.63;6289165;22;19915;-79
2022/03/29 11:55:58;;;;;;;;;;;;;;;17.64;43.69;101422.00;6288308;22;19907;-80
2022/03/29 11:58:25;;;;;;;;;;;;;;;17.65;44.09;101421.13;6289593;22;20217;-80
2022/03/29 12:00:50;;;;;;;;;;;;;;;17.64;44.03;101411.59;6289066;22;19914;-80
2022/03/29 12:03:36;;;;;;;;;;;;;;;17.58;43.52;101406.38;6263752;22;19911;-80
2022/03/29 12:06:09;;;;;;;;;;;;;;;17.58;43.87;101393.38;6291313;22;19952;-80
2022/03/29 12:08:53;;;;;;;;;;;;;;;17.63;43.92;101396.81;6289538;22;19930;-79
2022/03/29 12:11:23;;;;;;;;;;;;;;;17.61;43.69;101395.94;6289830;22;19917;-79
2022/03/29 12:13:59;;;;;;;;;;;;;;;17.52;43.48;101394.22;6294590;22;19949;-80
2022/03/29 12:16:25;;;;;;;;;;;;;;;17.51;43.71;101392.50;6295515;22;19907;-80
2022/03/29 12:18:50;;;;;;;;;;;;;;;17.59;44.10;101382.06;6296085;22;19913;-80
2022/03/29 12:21:18;;;;;;;;;;;;;;;17.60;43.55;101389.03;6325951;22;19906;-79
2022/03/29 12:23:43;;;;;;;;;;;;;;;17.50;43.27;101374.28;6304174;22;19951;-79
2022/03/29 12:26:20;;;;;;;;;;;;;;;17.48;43.27;101374.28;6299492;22;19918;-79
2022/03/29 12:28:46;;;;;;;;;;;;;;;17.46;43.21;101371.69;6322391;22;19910;-79
2022/03/29 12:31:13;;;;;;;;;;;;;;;17.57;43.65;101365.59;6293745;22;19960;-79
2022/03/29 12:33:39;;;;;;;;;;;;;;;17.61;43.55;101364.72;6293310;22;19926;-79
2022/03/29 12:36:09;;;;;;;;;;;;;;;17.65;44.08;101362.13;6291567;22;20346;-78
2022/03/29 12:38:42;;;;;;;;;;;;;;;17.66;43.97;101358.66;6317172;22;19961;-80
2022/03/29 12:41:08;;;;;;;;;;;;;;;17.63;43.59;101360.38;6290686;22;19907;-79
2022/03/29 12:43:35;;;;;;;;;;;;;;;17.61;43.78;101346.50;6318413;22;20333;-79
2022/03/29 12:46:00;;;;;;;;;;;;;;;17.52;43.22;101347.38;6290515;22;19907;-79
2022/03/29 12:48:26;;;;;;;;;;;;;;;17.46;43.38;101340.47;6265031;22;19922;-80
2022/03/29 12:50:52;;;;;;;;;;;;;;;17.47;43.29;101331.78;6291221;22;19907;-79
2022/03/29 12:53:17;;;;;;;;;;;;;;;17.50;43.65;101322.25;6289028;22;19964;-79
2022/03/29 12:55:54;;;;;;;;;;;;;;;17.47;43.47;101329.19;6291228;22;19990;-80
2022/03/29 12:58:28;;;;;;;;;;;;;;;17.44;43.45;101318.78;6289635;22;19911;-79
2022/03/29 13:00:55;;;;;;;;;;;;;;;17.47;43.69;101305.75;6301449;22;20323;-82
2022/03/29 13:03:35;;;;;;;;;;;;;;;17.52;43.53;101315.31;6304173;22;19911;-82
2022/03/29 13:06:21;;;;;;;;;;;;;;;17.57;43.70;101316.16;6300263;22;19891;-82
2022/03/29 13:09:13;;;;;;;;;;;;;;;17.54;43.59;101309.22;6278901;22;19911;-82
2022/03/29 13:12:01;;;;;;;;;;;;;;;17.60;43.57;101311.81;6246594;22;19918;-82
2022/03/29 13:14:38;;;;;;;;;;;;;;;17.51;42.54;101300.53;6260490;22;19907;-79
2022/03/29 13:17:03;;;;;;;;;;;;;;;17.51;43.06;101300.53;6278066;22;20374;-79
2022/03/29 13:19:28;;;;;;;;;;;;;;;17.54;43.23;101301.41;6287432;22;19955;-79
2022/03/29 13:22:01;;;;;;;;;;;;;;;17.51;43.02;101290.13;6266324;22;20327;-79
2022/03/29 13:24:34;;;;;;;;;;;;;;;17.52;43.03;101287.53;6293288;22;20346;-79
2022/03/29 13:27:01;;;;;;;;;;;;;;;17.58;43.32;101273.66;6290030;22;19907;-79
2022/03/29 13:29:27;;;;;;;;;;;;;;;17.63;43.49;101279.69;6289102;22;19922;-79
2022/03/29 13:31:53;;;;;;;;;;;;;;;17.62;43.42;101284.06;6316808;22;19926;-79
2022/03/29 13:34:18;;;;;;;;;;;;;;;17.57;43.01;101275.41;6288508;22;19933;-80
2022/03/29 13:36:44;;;;;;;;;;;;;;;17.53;42.51;101272.78;6263817;22;19996;-80
2022/03/29 13:39:10;;;;;;;;;;;;;;;17.54;42.79;101272.78;6295494;22;19910;-80
2022/03/29 13:45:17;;;;;;;;;;;;;;;17.53;42.58;101257.16;6335988;22;19941;-83
2022/03/29 13:54:19;;;;;;;;;;;;;;;17.67;42.74;101255.41;6240493;22;19911;-83
2022/03/29 14:09:20;;;;;;;;;;;;;;;17.69;43.00;101232.84;6269810;22;19924;-82
2022/03/29 14:11:47;;;;;;;;;;;;;;;17.68;42.75;101231.97;6235221;23;19952;-82
2022/03/29 14:20:29;;;;;;;;;;;;;;;17.76;43.10;101221.53;6274855;23;19931;-83
2022/03/29 14:23:22;;;;;;;;;;;;;;;17.76;42.78;101216.31;6223179;22;19939;-83
2022/03/29 14:31:44;;;;;;;;;;;;;;;17.66;42.96;101206.84;6309677;22;19925;-80
2022/03/29 14:34:11;;;;;;;;;;;;;;;17.64;42.91;101209.44;6315702;22;19915;-82
2022/03/29 14:36:58;;;;;;;;;;;;;;;17.65;42.97;101208.56;6294882;22;19911;-82
2022/03/29 14:50:13;;;;;;;;;;;;;;;17.67;42.79;101200.75;6295790;22;19925;-81
2022/03/29 15:02:28;;;;;;;;;;;;;;;17.67;42.37;101186.00;6332659;22;19914;-82
2022/03/29 16:27:49;;;;;;;;;;;;;;;17.47;41.92;101123.63;6292188;22;19903;-81
2022/03/29 16:30:27;;;;;;;;;;;;;;;17.45;42.11;101117.56;6331682;22;19919;-81
2022/03/29 16:33:17;;;;;;;;;;;;;;;17.47;42.25;101112.38;6240855;23;19912;-82
2022/03/29 16:36:03;;;;;;;;;;;;;;;17.46;42.39;101115.81;6180780;23;19940;-82
2022/03/29 16:42:11;;;;;;;;;;;;;;;17.42;42.48;101114.09;6183445;23;19935;-82
2022/03/29 16:44:37;;;;;;;;;;;;;;;17.45;42.59;101108.91;6178160;23;19916;-81
2022/03/29 16:50:06;;;;;;;;;;;;;;;17.51;42.69;101101.06;6181255;23;19960;-80
2022/03/29 16:52:33;;;;;;;;;;;;;;;17.53;42.77;101099.34;6174525;23;19916;-80
2022/03/29 16:54:58;;;;;;;;;;;;;;;17.48;42.86;101101.97;6155210;23;19927;-80
2022/03/29 16:57:24;;;;;;;;;;;;;;;17.44;42.94;101102.84;6226802;23;19912;-81
2022/03/29 16:59:49;;;;;;;;;;;;;;;17.44;43.27;101104.56;6175802;23;20260;-79
2022/03/29 17:02:14;;;;;;;;;;;;;;;17.42;43.39;101103.69;6196126;23;19908;-79
2022/03/29 17:04:41;;;;;;;;;;;;;;;17.47;43.56;101107.16;6302867;22;19906;-80
2022/03/29 17:07:07;;;;;;;;;;;;;;;17.44;43.61;101113.25;6269679;22;19910;-78
2022/03/29 17:09:39;;;;;;;;;;;;;;;17.42;43.94;101104.59;6291181;22;19933;-80
2022/03/29 17:15:10;;;;;;;;;;;;;;;17.50;44.74;101116.69;6226543;23;19987;-80
2022/03/29 17:17:40;;;;;;;;;;;;;;;17.45;44.75;101109.75;6227238;23;19962;-80
2022/03/29 17:20:17;;;;;;;;;;;;;;;17.45;44.99;101112.38;6225617;23;20375;-80
2022/03/29 17:49:19;;;;;;;;;;;;;;;17.35;45.96;101113.25;6336053;22;19930;-82
2022/03/29 17:55:20;;;;;;;;;;;;;;;17.30;45.72;101120.22;6272202;22;20174;-83
2022/03/29 17:58:32;;;;;;;;;;;;;;;17.24;45.86;101120.25;6179977;23;19908;-83
2022/03/29 18:01:04;;;;;;;;;;;;;;;17.19;45.67;101135.88;6204387;23;19907;-81
2022/03/29 18:03:32;;;;;;;;;;;;;;;17.20;45.87;101115.94;6233292;23;19937;-82
2022/03/29 18:06:17;;;;;;;;;;;;;;;17.19;45.72;101122.00;6260269;23;19934;-82
2022/03/29 18:12:07;;;;;;;;;;;;;;;17.18;45.43;101122.88;6176013;23;20336;-81